createdAt,value
2022-11-17T06:13:17.445Z,6.10
2022-11-17T06:16:24.013Z,4.50
2022-11-17T06:19:31.283Z,3.70
2022-11-17T06:22:33.761Z,3.20
2022-11-17T06:25:37.336Z,3.00
2022-11-17T06:28:41.813Z,2.80
2022-11-17T06:31:46.141Z,2.70
2022-11-17T06:34:55.265Z,2.60
2022-11-17T06:37:58.233Z,2.60
2022-11-17T06:41:00.219Z,2.50
2022-11-17T06:44:02.417Z,2.60
2022-11-17T06:47:04.560Z,2.60
2022-11-17T06:50:07.314Z,2.60
2022-11-17T06:53:11.394Z,2.70
2022-11-17T06:56:13.614Z,2.80
2022-11-17T06:59:16.165Z,3.00
2022-11-17T07:02:18.625Z,3.20
2022-11-17T07:05:20.666Z,3.20
2022-11-17T07:08:23.136Z,3.30
2022-11-17T07:11:25.254Z,3.30
2022-11-17T07:14:27.382Z,3.50
2022-11-17T07:17:29.697Z,3.90
2022-11-17T07:20:32.305Z,4.10
2022-11-17T07:23:35.287Z,4.20
2022-11-17T07:26:37.327Z,4.40
2022-11-17T07:29:39.549Z,4.40
2022-11-17T07:32:41.621Z,4.70
2022-11-17T07:35:43.759Z,4.80
2022-11-17T07:38:46.003Z,4.90
2022-11-17T07:41:48.657Z,5.10
2022-11-17T07:44:50.620Z,5.10
2022-11-17T07:47:56.974Z,5.20
2022-11-17T07:50:59.880Z,5.40
2022-11-17T07:54:01.949Z,5.60
2022-11-17T07:57:04.040Z,6.00
2022-11-17T08:00:06.771Z,6.60
2022-11-17T08:03:10.112Z,6.80
2022-11-17T08:06:12.214Z,7.00
2022-11-17T08:09:15.794Z,7.20
2022-11-17T08:12:17.798Z,7.40
2022-11-17T08:15:20.285Z,7.70
2022-11-17T08:18:22.275Z,7.80
2022-11-17T08:21:25.431Z,8.00
2022-11-17T08:24:27.722Z,8.10
2022-11-17T08:27:29.813Z,8.20
2022-11-17T08:30:34.911Z,8.40
2022-11-17T08:33:37.526Z,8.50
2022-11-17T08:36:40.167Z,8.60
2022-11-17T08:39:42.176Z,8.70
2022-11-17T08:42:44.313Z,8.80
2022-11-17T08:45:46.268Z,8.90
2022-11-17T08:48:52.223Z,8.80
2022-11-17T08:51:57.651Z,9.00
2022-11-17T08:54:59.672Z,9.50
2022-11-17T08:58:01.697Z,10.10
2022-11-17T09:01:05.475Z,10.70
2022-11-17T09:04:07.941Z,11.20
2022-11-17T09:07:09.972Z,11.20
2022-11-17T09:10:12.375Z,11.30
2022-11-17T09:13:18.497Z,11.30
2022-11-17T09:16:20.805Z,11.40
2022-11-17T09:19:23.079Z,11.20
2022-11-17T09:22:25.066Z,11.30
2022-11-17T09:25:27.203Z,11.50
2022-11-17T09:28:29.236Z,11.20
2022-11-17T09:31:31.321Z,10.90
2022-11-17T09:34:33.382Z,10.30
2022-11-17T09:37:35.556Z,9.70
2022-11-17T09:40:40.418Z,9.60
2022-11-17T09:44:06.787Z,9.60
2022-11-17T09:47:33.793Z,9.70
2022-11-17T09:50:40.779Z,9.70
2022-11-17T09:53:58.371Z,9.40
2022-11-17T09:57:01.672Z,9.40
2022-11-17T10:00:16.910Z,9.40
2022-11-17T10:03:21.847Z,9.20
2022-11-17T10:06:31.981Z,9.20
2022-11-17T10:09:44.320Z,9.20
2022-11-17T10:12:51.543Z,9.30
2022-11-17T10:16:06.686Z,9.60
2022-11-17T10:19:26.936Z,9.70
2022-11-17T10:22:36.876Z,9.70
2022-11-17T10:25:45.088Z,9.90
2022-11-17T10:28:48.489Z,10.00
2022-11-17T10:31:50.600Z,10.20
2022-11-17T10:34:52.573Z,10.40
2022-11-17T10:38:25.907Z,10.40
2022-11-17T10:41:37.512Z,10.30
2022-11-17T10:44:42.758Z,10.30
2022-11-17T10:47:44.735Z,10.30
2022-11-17T10:51:03.765Z,10.40
2022-11-17T10:54:15.421Z,10.60
2022-11-17T10:57:22.220Z,10.50
2022-11-17T11:00:34.859Z,10.30
2022-11-17T11:03:37.078Z,10.50
2022-11-17T11:06:39.314Z,10.60
2022-11-17T11:09:54.944Z,10.50
2022-11-17T11:13:14.274Z,10.30
2022-11-17T11:16:16.276Z,10.50
2022-11-17T11:19:20.120Z,10.40
2022-11-17T11:22:34.239Z,10.30
2022-11-17T11:25:57.012Z,10.20
2022-11-17T11:29:19.830Z,10.20
2022-11-17T11:32:48.259Z,10.20
2022-11-17T11:36:21.977Z,10.30
2022-11-17T11:39:34.233Z,10.20
2022-11-17T11:42:39.005Z,10.20
2022-11-17T11:45:55.809Z,10.20
2022-11-17T11:49:12.982Z,10.20
2022-11-17T11:52:24.690Z,10.30
2022-11-17T11:55:36.969Z,10.50
2022-11-17T11:58:44.940Z,10.60
2022-11-17T12:02:12.590Z,11.30
2022-11-17T12:05:37.099Z,11.70
2022-11-17T12:08:44.741Z,12.20
2022-11-17T12:12:02.965Z,12.70
2022-11-17T12:15:18.842Z,13.20
2022-11-17T12:18:20.799Z,13.20
2022-11-17T12:21:30.100Z,13.40
2022-11-17T12:24:41.130Z,13.10
2022-11-17T12:27:50.040Z,12.50
2022-11-17T12:31:08.345Z,12.00
2022-11-17T12:34:25.183Z,11.90
2022-11-17T12:37:27.417Z,11.80
2022-11-17T12:40:41.505Z,11.50
2022-11-17T12:43:43.433Z,11.20
2022-11-17T12:46:48.236Z,11.00
2022-11-17T12:50:17.394Z,10.80
2022-11-17T12:53:47.151Z,10.60
2022-11-17T12:57:09.429Z,10.30
2022-11-17T13:00:24.358Z,10.10
2022-11-17T13:03:41.239Z,9.90
2022-11-17T13:07:02.635Z,10.20
2022-11-17T13:10:05.129Z,10.60
2022-11-17T13:13:16.084Z,10.80
2022-11-17T13:16:20.077Z,11.00
2022-11-17T13:19:38.425Z,10.80
2022-11-17T13:22:42.162Z,10.50
2022-11-17T13:25:44.584Z,10.70
2022-11-17T13:28:47.896Z,10.80
2022-11-17T13:31:49.885Z,10.60
2022-11-17T13:34:53.360Z,10.20
2022-11-17T13:38:04.463Z,9.90
2022-11-17T13:41:06.889Z,9.70
2022-11-17T13:44:15.557Z,9.50
2022-11-17T13:47:27.385Z,9.50
2022-11-17T13:50:32.054Z,9.60
2022-11-17T13:53:34.265Z,9.50
2022-11-17T13:56:41.921Z,9.50
2022-11-17T13:59:45.062Z,9.50
2022-11-17T14:02:57.941Z,9.50
2022-11-17T14:05:59.869Z,9.40
2022-11-17T14:09:04.883Z,9.40
2022-11-17T14:12:11.341Z,9.40
2022-11-17T14:15:26.883Z,9.40
2022-11-17T14:18:37.008Z,9.70
2022-11-17T14:22:27.545Z,10.10
2022-11-17T14:25:39.508Z,10.30
2022-11-17T14:28:41.592Z,10.30
2022-11-17T14:31:43.558Z,10.30
2022-11-17T14:34:45.750Z,10.10
2022-11-17T14:37:47.757Z,9.80
2022-11-17T14:40:51.816Z,9.60
2022-11-17T14:43:53.842Z,9.50
2022-11-17T14:46:55.846Z,9.40
2022-11-17T14:49:57.923Z,9.30
2022-11-17T14:53:00.089Z,9.30
2022-11-17T14:56:08.953Z,9.20
2022-11-17T14:59:11.528Z,9.20
2022-11-17T15:02:13.797Z,9.20
2022-11-17T15:05:15.930Z,9.20
2022-11-17T15:08:17.946Z,9.10
2022-11-17T15:11:20.281Z,9.00
2022-11-17T15:14:22.353Z,9.00
2022-11-17T15:17:25.647Z,8.90
2022-11-17T15:20:29.681Z,8.80
2022-11-17T15:23:31.850Z,8.80
2022-11-17T15:26:34.250Z,8.80
2022-11-17T15:29:36.956Z,8.80
2022-11-17T15:32:39.266Z,8.80
2022-11-17T15:35:41.410Z,8.80
2022-11-17T15:38:43.476Z,8.70
2022-11-17T15:41:45.757Z,8.70
2022-11-17T15:44:47.744Z,8.70
2022-11-17T15:47:49.964Z,8.60
2022-11-17T15:51:05.178Z,8.70
2022-11-17T15:54:08.351Z,8.60
2022-11-17T15:57:10.354Z,8.60
2022-11-17T16:00:13.451Z,8.60
2022-11-17T16:03:15.391Z,8.60
2022-11-17T16:06:17.995Z,8.60
2022-11-17T16:09:20.430Z,8.60
2022-11-17T16:12:22.496Z,8.60
2022-11-17T16:15:24.884Z,8.50
2022-11-17T16:18:27.020Z,8.50
2022-11-17T16:21:29.290Z,8.50
2022-11-17T16:24:31.290Z,8.50
2022-11-17T16:27:33.449Z,8.50
2022-11-17T16:30:36.225Z,8.50
2022-11-17T16:33:38.144Z,8.50
2022-11-17T16:36:42.130Z,8.50
2022-11-17T16:39:44.196Z,8.50
2022-11-17T16:42:46.799Z,8.40
2022-11-17T16:45:48.832Z,8.40
2022-11-17T16:48:51.545Z,8.50
2022-11-17T16:51:56.509Z,8.50
2022-11-17T16:55:04.359Z,8.50
2022-11-17T16:58:07.675Z,8.40
2022-11-17T17:01:15.313Z,8.30
2022-11-17T17:04:17.464Z,8.30
2022-11-17T17:07:20.400Z,8.20
2022-11-17T17:10:23.658Z,8.20
2022-11-17T17:13:27.206Z,8.20
2022-11-17T17:16:30.857Z,8.20
2022-11-17T17:19:32.859Z,8.20
2022-11-17T17:22:35.235Z,8.20
2022-11-17T17:25:37.247Z,8.20
2022-11-17T17:28:40.785Z,8.10
2022-11-17T17:31:43.982Z,8.10
2022-11-17T17:34:46.097Z,8.10
2022-11-17T17:37:48.113Z,8.10
2022-11-17T17:40:52.086Z,8.10
2022-11-17T17:44:00.239Z,8.00
2022-11-17T17:47:02.286Z,8.00
2022-11-17T17:50:04.879Z,7.90
2022-11-17T17:53:09.642Z,7.90
2022-11-17T17:56:13.969Z,7.80
2022-11-17T17:59:16.698Z,7.90
2022-11-17T18:02:19.268Z,7.90
2022-11-17T18:05:22.764Z,7.90
2022-11-17T18:08:25.179Z,7.90
2022-11-17T18:11:27.437Z,7.90
2022-11-17T18:14:29.585Z,7.90
2022-11-17T18:17:32.091Z,7.90
2022-11-17T18:20:34.554Z,7.90
2022-11-17T18:23:38.020Z,7.90
2022-11-17T18:26:41.993Z,7.90
2022-11-17T18:29:44.721Z,7.90
2022-11-17T18:32:47.181Z,7.90
2022-11-17T18:35:52.291Z,7.90
2022-11-17T18:38:55.082Z,7.90
2022-11-17T18:41:57.802Z,7.90
2022-11-17T18:45:00.302Z,7.80
2022-11-17T18:48:02.679Z,7.80
2022-11-17T18:51:23.311Z,7.80
2022-11-17T18:54:26.376Z,7.80
2022-11-17T18:57:28.564Z,7.70
2022-11-17T19:00:30.922Z,7.70
2022-11-17T19:03:33.629Z,7.70
2022-11-17T19:06:36.187Z,7.70
2022-11-17T19:09:38.690Z,7.70
2022-11-17T19:12:40.801Z,7.70
2022-11-17T19:15:43.224Z,7.80
2022-11-17T19:18:47.684Z,7.70
2022-11-17T19:21:50.477Z,7.80
2022-11-17T19:24:52.968Z,7.80
2022-11-17T19:27:55.747Z,7.80
2022-11-17T19:31:07.107Z,7.80
2022-11-17T19:34:09.654Z,7.80
2022-11-17T19:37:12.179Z,7.80
2022-11-17T19:40:14.910Z,7.80
2022-11-17T19:43:19.642Z,7.80
2022-11-17T19:46:23.348Z,7.80
2022-11-17T19:49:25.924Z,7.80
2022-11-17T19:52:28.290Z,7.70
2022-11-17T19:55:30.372Z,7.80
2022-11-17T19:58:32.760Z,7.80
2022-11-17T20:01:38.810Z,7.80
2022-11-17T20:04:41.383Z,7.80
2022-11-17T20:07:44.877Z,7.70
2022-11-17T20:10:48.443Z,7.80
2022-11-17T20:13:50.955Z,7.80
2022-11-17T20:16:53.632Z,7.80
2022-11-17T20:19:56.127Z,7.80
2022-11-17T20:22:58.498Z,7.80
2022-11-17T20:26:09.909Z,7.80
2022-11-17T20:29:12.660Z,7.70
2022-11-17T20:32:15.038Z,7.70
2022-11-17T20:35:17.359Z,7.70
2022-11-17T20:38:20.706Z,7.70
2022-11-17T20:41:23.925Z,7.60
2022-11-17T20:44:31.099Z,7.70
2022-11-17T20:47:33.284Z,7.70
2022-11-17T20:50:35.296Z,7.60
2022-11-17T20:53:37.668Z,7.60
2022-11-17T20:56:41.122Z,7.60
2022-11-17T20:59:43.872Z,7.60
2022-11-17T21:02:46.096Z,7.60
2022-11-17T21:05:59.712Z,7.60
2022-11-17T21:09:01.903Z,7.70
2022-11-17T21:12:04.410Z,7.70
2022-11-17T21:15:07.212Z,7.70
2022-11-17T21:18:26.662Z,7.60
2022-11-17T21:21:29.165Z,7.70
2022-11-17T21:24:31.216Z,7.70
2022-11-17T21:27:33.239Z,7.70
2022-11-17T21:30:35.367Z,7.70
2022-11-17T21:33:37.813Z,7.70
2022-11-17T21:36:39.941Z,7.60
2022-11-17T21:39:42.062Z,7.70
2022-11-17T21:42:44.485Z,7.60
2022-11-17T21:45:47.490Z,7.70
2022-11-17T21:48:51.224Z,7.70
2022-11-17T21:51:53.211Z,7.70
2022-11-17T21:54:55.301Z,7.70
2022-11-17T21:57:57.324Z,7.70
2022-11-17T22:01:05.261Z,7.70
2022-11-17T22:04:07.345Z,7.60
2022-11-17T22:07:09.475Z,7.70
2022-11-17T22:10:11.537Z,7.60
2022-11-17T22:13:13.563Z,7.60
2022-11-17T22:16:15.522Z,7.60
2022-11-17T22:19:18.681Z,7.60
2022-11-17T22:22:20.922Z,7.60
2022-11-17T22:25:44.348Z,7.60
2022-11-17T22:28:45.522Z,7.60
2022-11-17T22:31:48.759Z,7.50
2022-11-17T22:34:50.842Z,7.60
2022-11-17T22:37:52.796Z,7.60
2022-11-17T22:41:00.497Z,7.60
2022-11-17T22:44:02.572Z,7.60
2022-11-17T22:47:04.555Z,7.60
2022-11-17T22:50:07.071Z,7.60
2022-11-17T22:53:09.039Z,7.60
2022-11-17T22:56:11.206Z,7.60
2022-11-17T22:59:13.197Z,7.60
2022-11-17T23:02:15.219Z,7.50
2022-11-17T23:05:17.713Z,7.60
2022-11-17T23:08:19.841Z,7.60
2022-11-17T23:11:36.509Z,7.60
2022-11-17T23:14:39.472Z,7.60
2022-11-17T23:17:42.834Z,7.60
2022-11-17T23:20:44.897Z,7.70
2022-11-17T23:23:46.962Z,7.70
2022-11-17T23:26:49.022Z,7.60
2022-11-17T23:29:51.012Z,7.70
2022-11-17T23:32:55.610Z,7.70
2022-11-17T23:35:57.945Z,7.60
2022-11-17T23:39:00.024Z,7.70
2022-11-17T23:42:02.165Z,7.70
2022-11-17T23:45:04.558Z,7.70
2022-11-17T23:48:06.727Z,7.70
2022-11-17T23:51:19.949Z,7.70
2022-11-17T23:54:22.030Z,7.70
2022-11-17T23:57:24.041Z,7.70
